sensor_id;sensor_type;location;lat;lon;timestamp;temperature;humidity
36280;DHT22;22317;47.936;12.742;2023-04-28T00:00:44;6.30;52.70
36280;DHT22;22317;47.936;12.742;2023-04-28T00:03:12;6.30;52.80
36280;DHT22;22317;47.936;12.742;2023-04-28T00:05:38;6.30;52.80
36280;DHT22;22317;47.936;12.742;2023-04-28T00:08:04;6.20;52.80
36280;DHT22;22317;47.936;12.742;2023-04-28T00:10:30;6.20;52.80
36280;DHT22;22317;47.936;12.742;2023-04-28T00:12:56;6.20;52.90
36280;DHT22;22317;47.936;12.742;2023-04-28T00:15:21;6.20;52.90
36280;DHT22;22317;47.936;12.742;2023-04-28T00:17:47;6.10;53.00
36280;DHT22;22317;47.936;12.742;2023-04-28T00:20:13;6.20;53.00
36280;DHT22;22317;47.936;12.742;2023-04-28T00:22:39;6.10;53.10
36280;DHT22;22317;47.936;12.742;2023-04-28T00:25:06;6.10;53.10
36280;DHT22;22317;47.936;12.742;2023-04-28T00:27:33;6.10;53.10
36280;DHT22;22317;47.936;12.742;2023-04-28T00:29:59;6.10;53.10
36280;DHT22;22317;47.936;12.742;2023-04-28T00:32:25;6.10;53.10
36280;DHT22;22317;47.936;12.742;2023-04-28T00:34:51;6.00;53.10
36280;DHT22;22317;47.936;12.742;2023-04-28T00:39:44;6.00;52.70
36280;DHT22;22317;47.936;12.742;2023-04-28T00:42:13;5.90;53.30
36280;DHT22;22317;47.936;12.742;2023-04-28T00:44:39;5.90;53.30
36280;DHT22;22317;47.936;12.742;2023-04-28T00:47:07;5.90;53.40
36280;DHT22;22317;47.936;12.742;2023-04-28T00:49:35;5.90;53.50
36280;DHT22;22317;47.936;12.742;2023-04-28T00:52:04;5.90;53.50
36280;DHT22;22317;47.936;12.742;2023-04-28T00:54:32;5.90;53.70
36280;DHT22;22317;47.936;12.742;2023-04-28T00:56:58;5.90;53.70
36280;DHT22;22317;47.936;12.742;2023-04-28T00:59:23;5.90;53.70
36280;DHT22;22317;47.936;12.742;2023-04-28T01:01:49;5.90;53.70
36280;DHT22;22317;47.936;12.742;2023-04-28T01:04:17;5.90;53.70
36280;DHT22;22317;47.936;12.742;2023-04-28T01:06:45;5.90;53.80
36280;DHT22;22317;47.936;12.742;2023-04-28T01:09:11;5.90;53.80
36280;DHT22;22317;47.936;12.742;2023-04-28T01:11:37;6.00;53.80
36280;DHT22;22317;47.936;12.742;2023-04-28T01:14:07;6.00;53.80
36280;DHT22;22317;47.936;12.742;2023-04-28T01:16:37;5.90;53.80
36280;DHT22;22317;47.936;12.742;2023-04-28T01:19:06;6.00;53.90
36280;DHT22;22317;47.936;12.742;2023-04-28T01:21:33;6.00;53.80
36280;DHT22;22317;47.936;12.742;2023-04-28T01:24:15;6.00;53.70
36280;DHT22;22317;47.936;12.742;2023-04-28T01:26:40;5.90;53.60
36280;DHT22;22317;47.936;12.742;2023-04-28T01:29:06;5.90;53.70
36280;DHT22;22317;47.936;12.742;2023-04-28T01:31:32;5.90;53.70
36280;DHT22;22317;47.936;12.742;2023-04-28T01:33:59;5.90;53.90
36280;DHT22;22317;47.936;12.742;2023-04-28T01:36:24;5.90;54.00
36280;DHT22;22317;47.936;12.742;2023-04-28T01:38:52;5.90;54.00
36280;DHT22;22317;47.936;12.742;2023-04-28T01:41:17;5.90;53.90
36280;DHT22;22317;47.936;12.742;2023-04-28T01:43:43;5.80;53.90
36280;DHT22;22317;47.936;12.742;2023-04-28T01:46:09;5.80;54.10
36280;DHT22;22317;47.936;12.742;2023-04-28T01:48:35;5.80;54.30
36280;DHT22;22317;47.936;12.742;2023-04-28T01:51:01;5.80;54.30
36280;DHT22;22317;47.936;12.742;2023-04-28T01:53:27;5.80;54.40
36280;DHT22;22317;47.936;12.742;2023-04-28T01:55:53;5.80;54.40
36280;DHT22;22317;47.936;12.742;2023-04-28T01:58:19;5.80;54.40
36280;DHT22;22317;47.936;12.742;2023-04-28T02:00:46;5.80;54.40
36280;DHT22;22317;47.936;12.742;2023-04-28T02:03:12;5.80;54.50
36280;DHT22;22317;47.936;12.742;2023-04-28T02:05:38;5.80;54.50
36280;DHT22;22317;47.936;12.742;2023-04-28T02:08:04;5.80;54.50
36280;DHT22;22317;47.936;12.742;2023-04-28T02:10:29;5.80;54.60
36280;DHT22;22317;47.936;12.742;2023-04-28T02:12:55;5.80;54.60
36280;DHT22;22317;47.936;12.742;2023-04-28T02:15:21;5.90;54.70
36280;DHT22;22317;47.936;12.742;2023-04-28T02:17:47;5.80;54.60
36280;DHT22;22317;47.936;12.742;2023-04-28T02:20:13;5.80;54.60
36280;DHT22;22317;47.936;12.742;2023-04-28T02:22:39;5.80;54.70
36280;DHT22;22317;47.936;12.742;2023-04-28T02:25:06;5.80;54.80
36280;DHT22;22317;47.936;12.742;2023-04-28T02:27:35;5.80;54.90
36280;DHT22;22317;47.936;12.742;2023-04-28T02:30:02;5.90;54.90
36280;DHT22;22317;47.936;12.742;2023-04-28T02:32:28;5.80;54.90
36280;DHT22;22317;47.936;12.742;2023-04-28T02:34:54;5.80;54.90
36280;DHT22;22317;47.936;12.742;2023-04-28T02:37:22;5.80;55.00
36280;DHT22;22317;47.936;12.742;2023-04-28T02:39:49;5.80;54.90
36280;DHT22;22317;47.936;12.742;2023-04-28T02:42:15;5.90;55.00
36280;DHT22;22317;47.936;12.742;2023-04-28T02:44:41;5.90;55.00
36280;DHT22;22317;47.936;12.742;2023-04-28T02:47:06;5.90;55.00
36280;DHT22;22317;47.936;12.742;2023-04-28T02:49:32;5.90;55.10
36280;DHT22;22317;47.936;12.742;2023-04-28T02:51:58;5.90;55.10
36280;DHT22;22317;47.936;12.742;2023-04-28T02:54:24;5.90;55.10
36280;DHT22;22317;47.936;12.742;2023-04-28T02:56:53;5.90;55.10
36280;DHT22;22317;47.936;12.742;2023-04-28T02:59:20;6.00;55.20
36280;DHT22;22317;47.936;12.742;2023-04-28T03:01:45;6.00;55.20
36280;DHT22;22317;47.936;12.742;2023-04-28T03:04:12;6.00;55.30
36280;DHT22;22317;47.936;12.742;2023-04-28T03:06:38;6.00;55.30
36280;DHT22;22317;47.936;12.742;2023-04-28T03:09:04;6.00;55.30
36280;DHT22;22317;47.936;12.742;2023-04-28T03:11:32;6.10;55.20
36280;DHT22;22317;47.936;12.742;2023-04-28T03:13:58;6.10;55.20
36280;DHT22;22317;47.936;12.742;2023-04-28T03:16:23;6.10;55.20
36280;DHT22;22317;47.936;12.742;2023-04-28T03:18:49;6.10;55.20
36280;DHT22;22317;47.936;12.742;2023-04-28T03:21:15;6.10;55.20
36280;DHT22;22317;47.936;12.742;2023-04-28T03:23:41;6.10;55.20
36280;DHT22;22317;47.936;12.742;2023-04-28T03:26:07;6.10;55.30
36280;DHT22;22317;47.936;12.742;2023-04-28T03:28:32;6.10;55.40
36280;DHT22;22317;47.936;12.742;2023-04-28T03:30:59;6.10;55.50
36280;DHT22;22317;47.936;12.742;2023-04-28T03:33:25;6.10;55.50
36280;DHT22;22317;47.936;12.742;2023-04-28T03:35:52;6.20;55.60
36280;DHT22;22317;47.936;12.742;2023-04-28T03:38:19;6.20;55.70
36280;DHT22;22317;47.936;12.742;2023-04-28T03:40:45;6.20;55.70
36280;DHT22;22317;47.936;12.742;2023-04-28T03:43:11;6.20;55.70
36280;DHT22;22317;47.936;12.742;2023-04-28T03:46:00;6.30;55.80
36280;DHT22;22317;47.936;12.742;2023-04-28T03:48:26;6.30;55.60
36280;DHT22;22317;47.936;12.742;2023-04-28T03:50:51;6.30;55.50
36280;DHT22;22317;47.936;12.742;2023-04-28T03:53:17;6.30;55.60
36280;DHT22;22317;47.936;12.742;2023-04-28T03:55:43;6.30;55.80
36280;DHT22;22317;47.936;12.742;2023-04-28T03:58:10;6.30;55.80
36280;DHT22;22317;47.936;12.742;2023-04-28T04:00:36;6.30;55.90
36280;DHT22;22317;47.936;12.742;2023-04-28T04:03:02;6.30;55.90
36280;DHT22;22317;47.936;12.742;2023-04-28T04:05:28;6.40;55.90
36280;DHT22;22317;47.936;12.742;2023-04-28T04:07:54;6.40;55.90
36280;DHT22;22317;47.936;12.742;2023-04-28T04:10:19;6.40;55.90
36280;DHT22;22317;47.936;12.742;2023-04-28T04:12:47;6.40;55.90
36280;DHT22;22317;47.936;12.742;2023-04-28T04:15:14;6.40;55.90
36280;DHT22;22317;47.936;12.742;2023-04-28T04:17:42;6.40;56.00
36280;DHT22;22317;47.936;12.742;2023-04-28T04:20:08;6.40;56.10
36280;DHT22;22317;47.936;12.742;2023-04-28T04:22:34;6.40;56.20
36280;DHT22;22317;47.936;12.742;2023-04-28T04:24:59;6.50;56.10
36280;DHT22;22317;47.936;12.742;2023-04-28T04:27:25;6.50;56.20
36280;DHT22;22317;47.936;12.742;2023-04-28T04:29:51;6.50;56.30
36280;DHT22;22317;47.936;12.742;2023-04-28T04:32:17;6.50;56.30
36280;DHT22;22317;47.936;12.742;2023-04-28T04:34:43;6.60;56.40
36280;DHT22;22317;47.936;12.742;2023-04-28T04:37:10;6.60;56.50
36280;DHT22;22317;47.936;12.742;2023-04-28T04:39:43;6.70;56.50
36280;DHT22;22317;47.936;12.742;2023-04-28T04:42:08;6.70;56.50
36280;DHT22;22317;47.936;12.742;2023-04-28T04:45:00;6.70;56.50
36280;DHT22;22317;47.936;12.742;2023-04-28T04:47:28;6.80;56.40
36280;DHT22;22317;47.936;12.742;2023-04-28T04:49:54;6.80;56.40
36280;DHT22;22317;47.936;12.742;2023-04-28T04:52:21;6.90;56.50
36280;DHT22;22317;47.936;12.742;2023-04-28T04:54:47;6.90;56.50
36280;DHT22;22317;47.936;12.742;2023-04-28T04:57:13;6.90;56.50
36280;DHT22;22317;47.936;12.742;2023-04-28T04:59:59;7.00;56.60
36280;DHT22;22317;47.936;12.742;2023-04-28T05:02:25;7.00;56.60
36280;DHT22;22317;47.936;12.742;2023-04-28T05:04:51;7.00;56.80
36280;DHT22;22317;47.936;12.742;2023-04-28T05:07:17;7.10;56.80
36280;DHT22;22317;47.936;12.742;2023-04-28T05:09:42;7.10;56.80
36280;DHT22;22317;47.936;12.742;2023-04-28T05:12:08;7.20;56.90
36280;DHT22;22317;47.936;12.742;2023-04-28T05:14:34;7.20;57.00
36280;DHT22;22317;47.936;12.742;2023-04-28T05:17:00;7.30;57.00
36280;DHT22;22317;47.936;12.742;2023-04-28T05:19:32;7.30;56.90
36280;DHT22;22317;47.936;12.742;2023-04-28T05:21:58;7.30;56.80
36280;DHT22;22317;47.936;12.742;2023-04-28T05:24:26;7.30;56.90
36280;DHT22;22317;47.936;12.742;2023-04-28T05:26:52;7.30;57.10
36280;DHT22;22317;47.936;12.742;2023-04-28T05:29:22;7.40;57.20
36280;DHT22;22317;47.936;12.742;2023-04-28T05:31:48;7.40;57.20
36280;DHT22;22317;47.936;12.742;2023-04-28T05:34:13;7.40;57.20
36280;DHT22;22317;47.936;12.742;2023-04-28T05:36:39;7.50;57.30
36280;DHT22;22317;47.936;12.742;2023-04-28T05:39:10;7.50;57.40
36280;DHT22;22317;47.936;12.742;2023-04-28T05:41:37;7.60;57.70
36280;DHT22;22317;47.936;12.742;2023-04-28T05:44:04;7.70;57.70
36280;DHT22;22317;47.936;12.742;2023-04-28T05:46:30;7.80;57.70
36280;DHT22;22317;47.936;12.742;2023-04-28T05:48:58;7.80;57.40
36280;DHT22;22317;47.936;12.742;2023-04-28T05:51:24;7.80;57.30
36280;DHT22;22317;47.936;12.742;2023-04-28T05:53:50;7.90;57.30
36280;DHT22;22317;47.936;12.742;2023-04-28T05:56:16;7.90;57.20
36280;DHT22;22317;47.936;12.742;2023-04-28T05:58:42;7.90;57.20
36280;DHT22;22317;47.936;12.742;2023-04-28T06:01:12;7.90;57.40
36280;DHT22;22317;47.936;12.742;2023-04-28T06:03:38;7.90;57.40
36280;DHT22;22317;47.936;12.742;2023-04-28T06:06:08;7.90;57.50
36280;DHT22;22317;47.936;12.742;2023-04-28T06:08:35;7.90;57.60
36280;DHT22;22317;47.936;12.742;2023-04-28T06:11:03;8.00;57.70
36280;DHT22;22317;47.936;12.742;2023-04-28T06:13:29;8.00;57.70
36280;DHT22;22317;47.936;12.742;2023-04-28T06:15:55;8.10;57.70
36280;DHT22;22317;47.936;12.742;2023-04-28T06:18:22;8.10;57.70
36280;DHT22;22317;47.936;12.742;2023-04-28T06:20:49;8.10;57.80
36280;DHT22;22317;47.936;12.742;2023-04-28T06:23:14;8.20;57.90
36280;DHT22;22317;47.936;12.742;2023-04-28T06:25:44;8.30;58.00
36280;DHT22;22317;47.936;12.742;2023-04-28T06:28:10;8.30;58.10
36280;DHT22;22317;47.936;12.742;2023-04-28T06:30:37;8.40;58.10
36280;DHT22;22317;47.936;12.742;2023-04-28T06:33:03;8.40;58.20
36280;DHT22;22317;47.936;12.742;2023-04-28T06:35:29;8.50;58.30
36280;DHT22;22317;47.936;12.742;2023-04-28T06:37:55;8.50;58.20
36280;DHT22;22317;47.936;12.742;2023-04-28T06:40:21;8.60;58.20
36280;DHT22;22317;47.936;12.742;2023-04-28T06:42:52;8.60;58.40
36280;DHT22;22317;47.936;12.742;2023-04-28T06:45:23;8.70;58.40
36280;DHT22;22317;47.936;12.742;2023-04-28T06:47:48;8.70;58.40
36280;DHT22;22317;47.936;12.742;2023-04-28T06:50:14;8.80;58.40
36280;DHT22;22317;47.936;12.742;2023-04-28T06:52:40;8.90;58.40
36280;DHT22;22317;47.936;12.742;2023-04-28T06:55:07;8.90;58.40
36280;DHT22;22317;47.936;12.742;2023-04-28T06:57:34;9.00;58.30
36280;DHT22;22317;47.936;12.742;2023-04-28T07:00:00;9.00;58.30
36280;DHT22;22317;47.936;12.742;2023-04-28T07:02:26;9.00;58.30
36280;DHT22;22317;47.936;12.742;2023-04-28T07:04:52;9.10;58.30
36280;DHT22;22317;47.936;12.742;2023-04-28T07:07:17;9.10;58.30
36280;DHT22;22317;47.936;12.742;2023-04-28T07:09:43;9.20;58.30
36280;DHT22;22317;47.936;12.742;2023-04-28T07:12:09;9.30;58.40
36280;DHT22;22317;47.936;12.742;2023-04-28T07:14:34;9.30;58.30
36280;DHT22;22317;47.936;12.742;2023-04-28T07:17:00;9.40;58.30
36280;DHT22;22317;47.936;12.742;2023-04-28T07:19:26;9.40;58.30
36280;DHT22;22317;47.936;12.742;2023-04-28T07:21:52;9.50;58.40
36280;DHT22;22317;47.936;12.742;2023-04-28T07:24:17;9.50;58.50
36280;DHT22;22317;47.936;12.742;2023-04-28T07:26:43;9.60;58.60
36280;DHT22;22317;47.936;12.742;2023-04-28T07:29:09;9.60;58.60
36280;DHT22;22317;47.936;12.742;2023-04-28T07:31:36;9.70;58.70
36280;DHT22;22317;47.936;12.742;2023-04-28T07:34:02;9.70;58.70
36280;DHT22;22317;47.936;12.742;2023-04-28T07:36:28;9.80;58.80
36280;DHT22;22317;47.936;12.742;2023-04-28T07:38:54;9.90;58.70
36280;DHT22;22317;47.936;12.742;2023-04-28T07:41:19;10.00;59.40
36280;DHT22;22317;47.936;12.742;2023-04-28T07:43:45;10.10;58.60
36280;DHT22;22317;47.936;12.742;2023-04-28T07:46:11;10.20;58.60
36280;DHT22;22317;47.936;12.742;2023-04-28T07:48:37;10.30;58.40
36280;DHT22;22317;47.936;12.742;2023-04-28T07:51:03;10.30;58.30
36280;DHT22;22317;47.936;12.742;2023-04-28T07:53:29;10.40;58.20
36280;DHT22;22317;47.936;12.742;2023-04-28T07:55:54;10.50;58.20
36280;DHT22;22317;47.936;12.742;2023-04-28T07:58:20;10.60;58.30
36280;DHT22;22317;47.936;12.742;2023-04-28T08:00:46;10.60;58.20
36280;DHT22;22317;47.936;12.742;2023-04-28T08:03:12;10.70;58.20
36280;DHT22;22317;47.936;12.742;2023-04-28T08:05:38;10.70;58.30
36280;DHT22;22317;47.936;12.742;2023-04-28T08:08:04;10.80;58.30
36280;DHT22;22317;47.936;12.742;2023-04-28T08:10:30;10.90;58.30
36280;DHT22;22317;47.936;12.742;2023-04-28T08:12:55;10.90;58.20
36280;DHT22;22317;47.936;12.742;2023-04-28T08:15:21;11.00;58.30
36280;DHT22;22317;47.936;12.742;2023-04-28T08:17:47;11.00;58.30
36280;DHT22;22317;47.936;12.742;2023-04-28T08:20:13;11.10;58.20
36280;DHT22;22317;47.936;12.742;2023-04-28T08:22:44;11.20;58.10
36280;DHT22;22317;47.936;12.742;2023-04-28T08:25:10;11.20;58.00
36280;DHT22;22317;47.936;12.742;2023-04-28T08:27:36;11.30;57.90
36280;DHT22;22317;47.936;12.742;2023-04-28T08:30:08;11.30;57.70
36280;DHT22;22317;47.936;12.742;2023-04-28T08:32:34;11.30;57.80
36280;DHT22;22317;47.936;12.742;2023-04-28T08:35:00;11.40;58.00
36280;DHT22;22317;47.936;12.742;2023-04-28T08:37:26;11.40;57.80
36280;DHT22;22317;47.936;12.742;2023-04-28T08:39:52;11.50;57.70
36280;DHT22;22317;47.936;12.742;2023-04-28T08:42:32;11.50;57.60
36280;DHT22;22317;47.936;12.742;2023-04-28T08:44:58;11.50;57.60
36280;DHT22;22317;47.936;12.742;2023-04-28T08:47:34;11.50;57.50
36280;DHT22;22317;47.936;12.742;2023-04-28T08:50:05;11.50;57.70
36280;DHT22;22317;47.936;12.742;2023-04-28T08:52:32;11.50;57.80
36280;DHT22;22317;47.936;12.742;2023-04-28T08:55:00;11.50;57.70
36280;DHT22;22317;47.936;12.742;2023-04-28T08:57:29;11.50;57.70
36280;DHT22;22317;47.936;12.742;2023-04-28T08:59:58;11.60;57.60
36280;DHT22;22317;47.936;12.742;2023-04-28T09:02:24;11.60;57.60
36280;DHT22;22317;47.936;12.742;2023-04-28T09:04:50;11.60;57.60
36280;DHT22;22317;47.936;12.742;2023-04-28T09:07:16;11.60;57.40
36280;DHT22;22317;47.936;12.742;2023-04-28T09:09:41;11.60;57.20
36280;DHT22;22317;47.936;12.742;2023-04-28T09:12:09;11.60;57.10
36280;DHT22;22317;47.936;12.742;2023-04-28T09:14:36;11.60;57.10
36280;DHT22;22317;47.936;12.742;2023-04-28T09:17:12;11.70;56.90
36280;DHT22;22317;47.936;12.742;2023-04-28T09:19:38;11.60;56.50
36280;DHT22;22317;47.936;12.742;2023-04-28T09:22:07;11.60;56.50
36280;DHT22;22317;47.936;12.742;2023-04-28T09:24:37;11.50;56.40
36280;DHT22;22317;47.936;12.742;2023-04-28T09:27:06;11.50;56.40
36280;DHT22;22317;47.936;12.742;2023-04-28T09:29:35;11.50;56.40
36280;DHT22;22317;47.936;12.742;2023-04-28T09:32:14;11.40;56.40
36280;DHT22;22317;47.936;12.742;2023-04-28T09:34:48;11.50;56.40
36280;DHT22;22317;47.936;12.742;2023-04-28T09:37:19;11.50;56.40
36280;DHT22;22317;47.936;12.742;2023-04-28T09:39:46;11.40;56.30
36280;DHT22;22317;47.936;12.742;2023-04-28T09:42:36;11.50;56.30
36280;DHT22;22317;47.936;12.742;2023-04-28T09:45:12;11.40;56.30
36280;DHT22;22317;47.936;12.742;2023-04-28T09:47:42;11.40;56.30
36280;DHT22;22317;47.936;12.742;2023-04-28T09:50:09;11.50;56.60
36280;DHT22;22317;47.936;12.742;2023-04-28T09:52:37;11.50;56.60
36280;DHT22;22317;47.936;12.742;2023-04-28T09:55:05;11.60;56.70
36280;DHT22;22317;47.936;12.742;2023-04-28T09:57:34;11.60;56.80
36280;DHT22;22317;47.936;12.742;2023-04-28T10:00:00;11.70;56.80
36280;DHT22;22317;47.936;12.742;2023-04-28T10:02:27;11.70;56.70
36280;DHT22;22317;47.936;12.742;2023-04-28T10:04:53;11.80;56.60
36280;DHT22;22317;47.936;12.742;2023-04-28T10:07:20;11.80;56.80
36280;DHT22;22317;47.936;12.742;2023-04-28T10:09:47;11.80;56.90
36280;DHT22;22317;47.936;12.742;2023-04-28T10:12:16;11.90;57.00
36280;DHT22;22317;47.936;12.742;2023-04-28T10:14:43;12.00;57.10
36280;DHT22;22317;47.936;12.742;2023-04-28T10:17:10;12.00;57.10
36280;DHT22;22317;47.936;12.742;2023-04-28T10:19:36;12.10;57.30
36280;DHT22;22317;47.936;12.742;2023-04-28T10:27:46;12.10;57.50
36280;DHT22;22317;47.936;12.742;2023-04-28T10:32:40;12.10;57.60
36280;DHT22;22317;47.936;12.742;2023-04-28T10:40:33;12.10;58.00
36280;DHT22;22317;47.936;12.742;2023-04-28T10:43:00;12.10;58.00
36280;DHT22;22317;47.936;12.742;2023-04-28T10:48:22;12.00;58.50
36280;DHT22;22317;47.936;12.742;2023-04-28T10:56:22;12.00;58.60
36280;DHT22;22317;47.936;12.742;2023-04-28T10:58:50;12.10;58.60
36280;DHT22;22317;47.936;12.742;2023-04-28T11:06:36;12.10;58.80
36280;DHT22;22317;47.936;12.742;2023-04-28T11:16:58;12.40;58.80
36280;DHT22;22317;47.936;12.742;2023-04-28T11:19:35;12.40;58.80
36280;DHT22;22317;47.936;12.742;2023-04-28T11:22:06;12.40;58.80
36280;DHT22;22317;47.936;12.742;2023-04-28T11:24:38;12.50;58.80
36280;DHT22;22317;47.936;12.742;2023-04-28T11:27:04;12.50;58.60
36280;DHT22;22317;47.936;12.742;2023-04-28T11:29:39;12.40;58.50
36280;DHT22;22317;47.936;12.742;2023-04-28T11:32:08;12.50;58.70
36280;DHT22;22317;47.936;12.742;2023-04-28T11:34:35;12.40;58.70
36280;DHT22;22317;47.936;12.742;2023-04-28T11:37:01;12.40;58.70
36280;DHT22;22317;47.936;12.742;2023-04-28T11:39:28;12.40;58.60
36280;DHT22;22317;47.936;12.742;2023-04-28T11:41:54;12.40;58.70
36280;DHT22;22317;47.936;12.742;2023-04-28T11:44:23;12.40;58.70
36280;DHT22;22317;47.936;12.742;2023-04-28T11:46:50;12.40;58.70
36280;DHT22;22317;47.936;12.742;2023-04-28T11:49:24;12.40;58.70
36280;DHT22;22317;47.936;12.742;2023-04-28T11:51:51;12.30;58.60
36280;DHT22;22317;47.936;12.742;2023-04-28T11:54:21;12.30;58.50
36280;DHT22;22317;47.936;12.742;2023-04-28T11:56:47;12.30;58.60
36280;DHT22;22317;47.936;12.742;2023-04-28T11:59:13;12.30;58.60
36280;DHT22;22317;47.936;12.742;2023-04-28T12:04:11;12.30;58.70
36280;DHT22;22317;47.936;12.742;2023-04-28T12:06:38;12.20;58.60
36280;DHT22;22317;47.936;12.742;2023-04-28T12:09:15;12.20;58.60
36280;DHT22;22317;47.936;12.742;2023-04-28T12:12:04;12.20;58.80
36280;DHT22;22317;47.936;12.742;2023-04-28T12:17:25;12.20;58.90
36280;DHT22;22317;47.936;12.742;2023-04-28T12:19:53;12.30;59.00
36280;DHT22;22317;47.936;12.742;2023-04-28T12:22:18;12.20;58.90
36280;DHT22;22317;47.936;12.742;2023-04-28T12:24:44;12.30;58.90
36280;DHT22;22317;47.936;12.742;2023-04-28T12:27:20;12.30;59.00
36280;DHT22;22317;47.936;12.742;2023-04-28T12:29:50;12.20;59.10
36280;DHT22;22317;47.936;12.742;2023-04-28T12:32:16;12.20;59.00
36280;DHT22;22317;47.936;12.742;2023-04-28T12:34:44;12.20;59.20
36280;DHT22;22317;47.936;12.742;2023-04-28T12:37:10;12.20;59.30
36280;DHT22;22317;47.936;12.742;2023-04-28T12:39:39;12.20;59.30
36280;DHT22;22317;47.936;12.742;2023-04-28T12:42:06;12.30;59.40
36280;DHT22;22317;47.936;12.742;2023-04-28T12:44:33;12.30;59.40
36280;DHT22;22317;47.936;12.742;2023-04-28T12:47:07;12.30;59.40
36280;DHT22;22317;47.936;12.742;2023-04-28T12:49:36;12.40;59.50
36280;DHT22;22317;47.936;12.742;2023-04-28T12:52:03;12.40;59.60
36280;DHT22;22317;47.936;12.742;2023-04-28T12:54:30;12.50;59.60
36280;DHT22;22317;47.936;12.742;2023-04-28T12:56:55;12.60;59.60
36280;DHT22;22317;47.936;12.742;2023-04-28T12:59:22;12.70;59.40
36280;DHT22;22317;47.936;12.742;2023-04-28T13:01:48;12.70;59.40
36280;DHT22;22317;47.936;12.742;2023-04-28T13:04:18;12.70;59.30
36280;DHT22;22317;47.936;12.742;2023-04-28T13:06:43;12.70;59.20
36280;DHT22;22317;47.936;12.742;2023-04-28T13:09:13;12.70;59.10
36280;DHT22;22317;47.936;12.742;2023-04-28T13:11:40;12.80;59.20
36280;DHT22;22317;47.936;12.742;2023-04-28T13:14:06;12.70;59.10
36280;DHT22;22317;47.936;12.742;2023-04-28T13:16:33;12.70;59.20
36280;DHT22;22317;47.936;12.742;2023-04-28T13:19:01;12.70;59.40
36280;DHT22;22317;47.936;12.742;2023-04-28T13:21:27;12.70;59.40
36280;DHT22;22317;47.936;12.742;2023-04-28T13:23:54;12.70;59.40
36280;DHT22;22317;47.936;12.742;2023-04-28T13:26:21;12.70;59.50
36280;DHT22;22317;47.936;12.742;2023-04-28T13:28:50;12.70;59.50
36280;DHT22;22317;47.936;12.742;2023-04-28T13:31:17;12.70;59.40
36280;DHT22;22317;47.936;12.742;2023-04-28T13:33:42;12.60;59.70
36280;DHT22;22317;47.936;12.742;2023-04-28T13:36:08;12.50;59.00
36280;DHT22;22317;47.936;12.742;2023-04-28T13:38:34;12.40;59.00
36280;DHT22;22317;47.936;12.742;2023-04-28T13:41:01;12.40;59.10
36280;DHT22;22317;47.936;12.742;2023-04-28T13:43:26;12.40;59.20
36280;DHT22;22317;47.936;12.742;2023-04-28T13:45:52;12.40;59.00
36280;DHT22;22317;47.936;12.742;2023-04-28T13:48:18;12.40;59.00
36280;DHT22;22317;47.936;12.742;2023-04-28T13:50:44;12.40;58.90
36280;DHT22;22317;47.936;12.742;2023-04-28T13:53:10;12.40;58.70
36280;DHT22;22317;47.936;12.742;2023-04-28T13:55:36;12.40;58.70
36280;DHT22;22317;47.936;12.742;2023-04-28T13:58:02;12.40;58.70
36280;DHT22;22317;47.936;12.742;2023-04-28T14:00:30;12.40;58.50
36280;DHT22;22317;47.936;12.742;2023-04-28T14:02:57;12.30;58.40
36280;DHT22;22317;47.936;12.742;2023-04-28T14:05:23;12.20;58.30
36280;DHT22;22317;47.936;12.742;2023-04-28T14:07:49;12.20;58.40
36280;DHT22;22317;47.936;12.742;2023-04-28T14:10:15;12.10;58.50
36280;DHT22;22317;47.936;12.742;2023-04-28T14:12:40;12.10;58.60
36280;DHT22;22317;47.936;12.742;2023-04-28T14:15:07;12.10;58.60
36280;DHT22;22317;47.936;12.742;2023-04-28T14:17:32;12.00;58.70
36280;DHT22;22317;47.936;12.742;2023-04-28T14:20:02;12.00;58.90
36280;DHT22;22317;47.936;12.742;2023-04-28T14:22:28;12.00;58.90
36280;DHT22;22317;47.936;12.742;2023-04-28T14:24:54;12.00;58.90
36280;DHT22;22317;47.936;12.742;2023-04-28T14:27:21;11.90;58.90
36280;DHT22;22317;47.936;12.742;2023-04-28T14:29:47;11.90;59.10
36280;DHT22;22317;47.936;12.742;2023-04-28T14:32:14;12.00;59.30
36280;DHT22;22317;47.936;12.742;2023-04-28T14:34:41;12.00;59.30
36280;DHT22;22317;47.936;12.742;2023-04-28T14:37:07;12.10;59.30
36280;DHT22;22317;47.936;12.742;2023-04-28T14:39:34;12.20;59.40
36280;DHT22;22317;47.936;12.742;2023-04-28T14:42:00;12.40;59.60
36280;DHT22;22317;47.936;12.742;2023-04-28T14:44:26;12.80;60.00
36280;DHT22;22317;47.936;12.742;2023-04-28T14:46:52;13.20;59.80
36280;DHT22;22317;47.936;12.742;2023-04-28T14:49:18;13.50;59.10
36280;DHT22;22317;47.936;12.742;2023-04-28T14:51:44;13.80;58.60
36280;DHT22;22317;47.936;12.742;2023-04-28T14:54:10;13.90;57.80
36280;DHT22;22317;47.936;12.742;2023-04-28T14:56:36;13.90;57.20
36280;DHT22;22317;47.936;12.742;2023-04-28T14:59:02;13.90;56.90
36280;DHT22;22317;47.936;12.742;2023-04-28T15:01:29;13.80;56.90
36280;DHT22;22317;47.936;12.742;2023-04-28T15:03:55;13.80;56.90
36280;DHT22;22317;47.936;12.742;2023-04-28T15:06:21;13.80;56.60
36280;DHT22;22317;47.936;12.742;2023-04-28T15:08:47;13.80;56.50
36280;DHT22;22317;47.936;12.742;2023-04-28T15:11:12;13.70;56.40
36280;DHT22;22317;47.936;12.742;2023-04-28T15:13:38;13.70;56.30
36280;DHT22;22317;47.936;12.742;2023-04-28T15:16:05;13.60;55.90
36280;DHT22;22317;47.936;12.742;2023-04-28T15:18:31;13.40;55.90
36280;DHT22;22317;47.936;12.742;2023-04-28T15:20:58;13.20;56.10
36280;DHT22;22317;47.936;12.742;2023-04-28T15:23:24;13.00;56.50
36280;DHT22;22317;47.936;12.742;2023-04-28T15:25:50;12.90;56.60
36280;DHT22;22317;47.936;12.742;2023-04-28T15:28:18;12.80;56.80
36280;DHT22;22317;47.936;12.742;2023-04-28T15:30:44;12.70;57.00
36280;DHT22;22317;47.936;12.742;2023-04-28T15:33:10;12.50;57.10
36280;DHT22;22317;47.936;12.742;2023-04-28T15:35:44;12.40;57.50
36280;DHT22;22317;47.936;12.742;2023-04-28T15:38:11;12.40;57.80
36280;DHT22;22317;47.936;12.742;2023-04-28T15:40:38;12.40;58.00
36280;DHT22;22317;47.936;12.742;2023-04-28T15:43:04;12.40;58.10
36280;DHT22;22317;47.936;12.742;2023-04-28T15:45:30;12.40;58.10
36280;DHT22;22317;47.936;12.742;2023-04-28T15:47:56;12.40;58.30
36280;DHT22;22317;47.936;12.742;2023-04-28T15:50:22;12.40;58.30
36280;DHT22;22317;47.936;12.742;2023-04-28T15:52:49;12.40;58.50
36280;DHT22;22317;47.936;12.742;2023-04-28T15:55:16;12.40;58.40
36280;DHT22;22317;47.936;12.742;2023-04-28T15:57:43;12.30;58.50
36280;DHT22;22317;47.936;12.742;2023-04-28T16:00:09;12.30;58.60
36280;DHT22;22317;47.936;12.742;2023-04-28T16:02:39;12.30;58.80
36280;DHT22;22317;47.936;12.742;2023-04-28T16:05:05;12.30;58.90